createdAt,value
2018-05-08T00:09:31.771Z,12.86
2018-05-08T00:30:05.581Z,12.49
2018-05-08T00:50:40.855Z,12.09
2018-05-08T01:11:13.979Z,12.31
2018-05-08T01:31:49.252Z,11.72
2018-05-08T01:52:24.523Z,11.75
2018-05-08T02:12:59.794Z,11.58
2018-05-08T02:33:32.916Z,11.19
2018-05-08T02:54:08.409Z,11.04
2018-05-08T03:14:41.310Z,10.99
2018-05-08T03:35:15.836Z,11.00
2018-05-08T03:55:46.935Z,10.85
2018-05-08T04:16:19.136Z,10.81
2018-05-08T04:36:55.466Z,10.68
2018-05-08T04:57:29.695Z,10.51
2018-05-08T05:18:04.650Z,10.96
2018-05-08T05:38:39.919Z,11.75
2018-05-08T06:17:13.790Z,13.04
2018-05-08T06:37:49.300Z,14.04
2018-05-08T06:58:24.333Z,15.62
2018-05-08T07:18:57.454Z,16.44
2018-05-08T07:39:30.892Z,17.08
2018-05-08T08:00:04.924Z,17.85
2018-05-08T08:20:37.132Z,18.36
2018-05-08T08:41:12.399Z,19.22
2018-05-08T09:01:49.848Z,19.77
2018-05-08T09:22:24.785Z,20.39
2018-05-08T09:43:00.061Z,20.88
2018-05-08T10:03:36.251Z,21.26
2018-05-08T10:24:11.522Z,21.74
2018-05-08T10:44:46.803Z,22.14
2018-05-08T11:05:19.928Z,22.67
2018-05-08T11:25:56.466Z,22.93
2018-05-08T11:46:27.392Z,23.40
2018-05-08T12:06:59.590Z,23.61
2018-05-08T12:27:33.084Z,23.84
2018-05-08T12:48:05.266Z,24.32
2018-05-08T13:08:40.506Z,24.71
2018-05-08T13:29:15.458Z,25.30
2018-05-08T13:49:50.729Z,26.27
2018-05-08T14:10:26.923Z,27.20
2018-05-08T14:31:02.192Z,27.88
2018-05-08T14:51:35.316Z,28.61
2018-05-08T15:12:10.587Z,29.69
2018-05-08T15:32:45.860Z,30.75
2018-05-08T15:53:18.989Z,30.20
2018-05-08T16:13:50.257Z,28.17
2018-05-08T16:34:27.680Z,27.59
2018-05-08T16:55:01.744Z,28.10
2018-05-08T17:15:35.769Z,27.82
2018-05-08T17:36:14.114Z,26.14
2018-05-08T17:56:55.530Z,24.96
2018-05-08T18:35:45.851Z,22.51
2018-05-08T18:56:20.047Z,21.34
2018-05-08T19:16:52.859Z,20.55
2018-05-08T19:37:32.114Z,19.54
2018-05-08T19:58:06.460Z,18.85
2018-05-08T20:18:41.736Z,18.00
2018-05-08T20:39:14.862Z,17.65
2018-05-08T20:59:49.408Z,16.83
2018-05-08T21:20:24.177Z,16.22
2018-05-08T21:40:55.454Z,16.10
2018-05-08T22:01:30.049Z,15.92
2018-05-08T22:22:02.003Z,15.04
2018-05-08T22:42:39.499Z,14.75
2018-05-08T23:03:16.539Z,14.61
2018-05-08T23:23:52.740Z,14.22
2018-05-08T23:44:25.853Z,14.02
